• Join FlightAware (Why Join?)
  • Login
  • US Flag 
02:25AM EDT


 

Airport Tracker/Info


-or-


 

Live Flight TrackerFlight Track Log ✈ ASQ4293 ✈ 05-Jul-2013 ✈ KPHX - KIAH

Flight Track Log - Related Links

Times and Time Zones

All times are in EDT time to prevent confusion due to time zone crossing. See the ASQ4293 flight status page for this flight to view local times or setup timezone preferences in your user account.

Time Position Orientation Groundspeed Altitude Reporting Facility
EDT Latitude Longitude Course Direction KTS MPH feet Rate Location/Type
01:17PM 33.4333 -112.0333 168° South 174 200 1,900  Level Phoenix TRACON
01:18PM 33.4167 -112.1167 257° West 222 255 3,600 1,680 Climbing Phoenix TRACON
01:19PM 33.3639 -112.1747 223° Southwest 261 300 5,800 1,800 Climbing Albuquerque Center
01:20PM 33.1249 -111.9479 168° South  Level FlightAware Approximate
01:21PM 33.0222 -111.9333 180° South  Level FlightAware Approximate
01:21PM 33.3228 -112.1100 127° Southeast 277 319 7,900  Level Albuquerque Center
01:22PM 32.9217 -111.9096 168° South  Level FlightAware Approximate
01:22PM 33.3067 -112.0203 102° East 278 320 10,000  Level Albuquerque Center
01:23PM 33.2861 -111.9000 102° East 313 360 11,500 1,200 Climbing Albuquerque Center
01:24PM 33.2642 -111.7864 103° East 347 399 12,500 1,020 Climbing Albuquerque Center
01:25PM 33.2408 -111.6661 103° East 370 426 13,700 1,260 Climbing Albuquerque Center
01:26PM 33.2197 -111.5431 102° East 379 436 15,200 1,560 Climbing Albuquerque Center
01:27PM 33.2000 -111.4222 101° East 373 429 17,000 1,620 Climbing Albuquerque Center
01:28PM 33.1747 -111.3053 104° East 367 422 18,600 1,500 Climbing Albuquerque Center
01:29PM 33.1408 -111.1681 106° East 361 415 20,100 1,680 Climbing Albuquerque Center
01:30PM 33.1144 -111.0586 106° East 348 400 22,100 1,740 Climbing Albuquerque Center
01:31PM 33.0872 -110.9536 107° East 336 387 23,700 1,380 Climbing Albuquerque Center
01:32PM 33.0608 -110.8483 107° East 333 383 25,000 1,020 Climbing Albuquerque Center
01:33PM 33.0339 -110.7394 106° East 341 392 25,800 780 Climbing Albuquerque Center
01:34PM 33.0050 -110.6242 107° East 358 412 26,600 780 Climbing Albuquerque Center
01:35PM 32.9750 -110.5039 107° East 374 430 27,500 1,140 Climbing Albuquerque Center
01:36PM 32.9369 -110.3586 107° East 382 440 29,000 1,440 Climbing Albuquerque Center
01:37PM 32.9081 -110.2400 106° East 377 434 30,500 1,380 Climbing Albuquerque Center
01:38PM 32.8786 -110.1256 107° East 366 421 31,900 1,200 Climbing Albuquerque Center
01:39PM 32.8492 -110.0086 107° East 364 419 33,000 1,020 Climbing Albuquerque Center
01:40PM 32.8197 -109.8964 107° East 360 414 34,100 900 Climbing Albuquerque Center
01:41PM 32.7903 -109.7850 107° East 354 407 34,900 420 Climbing Albuquerque Center
01:42PM 32.7617 -109.6669 106° East 367 422 35,000  Climbing Albuquerque Center
01:43PM 32.7267 -109.5425 108° East 391 450 35,000  Level Albuquerque Center
01:44PM 32.6844 -109.3817 107° East 421 484 35,000  Level Albuquerque Center
01:45PM 32.6489 -109.2417 107° East 438 504 35,000  Level Albuquerque Center
01:46PM 32.6100 -109.1011 108° East 448 516 35,000  Level Albuquerque Center
01:47PM 32.5725 -108.9600 107° East 450 518 35,000  Level Albuquerque Center
01:48PM 32.5339 -108.8186 108° East 452 520 35,000  Level Albuquerque Center
01:49PM 32.4908 -108.6772 110° East 456 525 35,000  Level Albuquerque Center
01:50PM 32.4528 -108.5353 108° East 456 525 35,000  Level Albuquerque Center
01:51PM 32.4081 -108.3672 107° East 450 518 35,000  Level Albuquerque Center
01:52PM 32.3681 -108.2256 108° East 453 521 35,000  Level Albuquerque Center
01:53PM 32.3303 -108.0856 108° East 451 519 35,000  Level Albuquerque Center
01:54PM 32.2911 -107.9458 108° East 450 518 35,000  Level Albuquerque Center
01:55PM 32.2525 -107.8069 108° East 448 516 35,000  Level Albuquerque Center
01:56PM 32.2139 -107.6678 108° East 449 517 35,000  Level Albuquerque Center
01:58PM 32.1675 -107.5014 108° East 450 518 35,000  Level Albuquerque Center
01:59PM 32.1286 -107.3628 108° East 450 518 35,000  Level Albuquerque Center
02:00PM 32.0894 -107.2244 108° East 449 517 35,000  Level Albuquerque Center
02:01PM 32.0494 -107.0856 109° East 451 519 35,000  Level Albuquerque Center
02:02PM 32.0111 -106.9469 108° East 450 518 35,000  Level Albuquerque Center
02:03PM 31.9625 -106.7822 109° East 447 514 35,000  Level Albuquerque Center
02:04PM 31.9222 -106.6436 109° East 450 518 35,000  Level Albuquerque Center
02:05PM 31.8828 -106.5114 109° East 452 520 35,000  Level Albuquerque Center
02:06PM 31.8436 -106.3697 108° East 456 525 35,000  Level Albuquerque Center
02:07PM 31.8053 -106.2303 108° East 450 518 35,000  Level Albuquerque Center
02:08PM 31.7689 -106.0911 107° East 446 513 35,000  Level Albuquerque Center
02:09PM 31.7264 -105.9239 107° East 445 512 35,000  Level Albuquerque Center
02:10PM 31.6917 -105.7839 106° East 447 514 35,000  Level Albuquerque Center
02:11PM 31.6567 -105.6444 106° East 446 513 35,000  Level Albuquerque Center
02:12PM 31.6217 -105.5047 106° East 445 512 35,000  Level Albuquerque Center
02:13PM 31.5853 -105.3650 107° East 447 514 35,000  Level Albuquerque Center
02:14PM 31.5503 -105.2269 107° East 442 509 35,000  Level Albuquerque Center
02:15PM 31.5156 -105.0869 106° East 445 512 35,000  Level Albuquerque Center
02:16PM 31.4803 -104.9472 106° East 445 512 35,000  Level Albuquerque Center
02:17PM 31.4431 -104.8075 107° East 446 513 35,000  Level Albuquerque Center
02:18PM 31.4006 -104.6403 107° East 445 512 35,000  Level Albuquerque Center
02:19PM 31.3633 -104.5000 107° East 448 516 35,000  Level Albuquerque Center
02:20PM 31.3269 -104.3600 107° East 449 517 35,000  Level Albuquerque Center
02:21PM 31.2919 -104.2208 106° East 447 514 35,000  Level Albuquerque Center
02:22PM 31.2542 -104.0822 108° East 448 516 35,000  Level Albuquerque Center
02:23PM 31.2161 -103.9436 108° East 447 514 35,000  Level Albuquerque Center
02:24PM 31.1778 -103.8039 108° East 451 519 35,000  Level Albuquerque Center
02:25PM 31.1353 -103.6506 108° East 445 512 35,000  Level Albuquerque Center
02:26PM 31.0969 -103.5144 108° East 444 511 35,000  Level Albuquerque Center
02:27PM 31.0606 -103.3800 108° East 440 506 35,000  Level Albuquerque Center
02:28PM 31.0231 -103.2458 108° East 437 503 35,000  Level Albuquerque Center
02:29PM 30.9892 -103.1131 107° East 432 497 35,000  Level Albuquerque Center
02:30PM 30.9442 -102.9522 108° East 434 499 35,000  Level Albuquerque Center
02:31PM 30.9097 -102.8164 106° East 439 505 35,000  Level Albuquerque Center
02:32PM 30.8742 -102.6814 107° East 440 506 35,000  Level Albuquerque Center
02:33PM 30.8397 -102.5467 107° East 438 504 35,000  Level Albuquerque Center
02:34PM 30.8044 -102.4122 107° East 439 505 35,000  Level Albuquerque Center
02:35PM 30.7689 -102.2783 107° East 438 504 35,000  Level Albuquerque Center
02:37PM 30.7336 -102.1442 107° East 438 504 35,000  Level Albuquerque Center
02:38PM 30.6919 -101.9831 107° East 437 503 35,000  Level Albuquerque Center
02:39PM 30.6564 -101.8483 107° East 437 503 35,000  Level Houston Center
02:40PM 30.6211 -101.7150 107° East 434 499 35,000  Level Houston Center
02:41PM 30.5803 -101.5614 107° East 432 497 35,000  Level Houston Center
02:42PM 30.5442 -101.4292 108° East 431 496 35,000  Level Houston Center
02:43PM 30.5086 -101.2983 107° East 428 493 35,000  Level Houston Center
02:44PM 30.4722 -101.1667 108° East 429 494 35,000  Level Houston Center
02:45PM 30.4372 -101.0361 107° East 426 490 35,000  Level Houston Center
02:46PM 30.4006 -100.9058 108° East 426 490 35,000  Level Houston Center
02:47PM 30.3661 -100.7764 107° East 422 486 35,000  Level Houston Center
02:48PM 30.3294 -100.6456 108° East 420 483 35,000  Level Houston Center
02:49PM 30.2872 -100.4925 108° East 422 486 35,000  Level Houston Center
02:50PM 30.2508 -100.3606 108° East 425 489 35,000  Level Houston Center
02:51PM 30.2142 -100.2253 107° East 431 496 35,000  Level Houston Center
02:52PM 30.1750 -100.0864 108° East 443 510 35,000  Level Houston Center
02:53PM 30.1342 -99.9489 109° East 447 514 35,000  Level Houston Center
02:54PM 30.0939 -99.8092 108° East 455 524 35,000  Level Houston Center
02:55PM 30.0544 -99.6708 108° East 455 524 35,000  Level Houston Center
02:56PM 30.0139 -99.5311 109° East 458 527 35,000  Level Houston Center
02:57PM 29.9747 -99.3914 108° East 459 528 35,000  Level Houston Center
02:58PM 29.9342 -99.2531 109° East 458 527 35,000  Level Houston Center
02:59PM 29.8875 -99.1156 111° Southeast 462 532 35,000  Level Houston Center
03:00PM 29.8261 -98.9511 113° Southeast 461 531 35,000  Level Houston Center
03:01PM 29.7756 -98.8156 113° Southeast 462 532 35,000  Level Houston Center
03:02PM 29.7256 -98.6797 113° Southeast 461 531 35,000  Level Houston Center
03:03PM 29.6753 -98.5442 113° Southeast 460 529 35,000  Level Houston Center
03:04PM 29.6481 -98.3861 101° East 470 541 35,000  Level Houston Center
03:05PM 29.6481 -98.2383 90° East 462 532 35,000  Level Houston Center
03:06PM 29.6497 -98.0914 89° East 461 531 35,000  Level Houston Center
03:07PM 29.6511 -97.9439 89° East 463 533 35,000 -60 Level Houston Center
03:08PM 29.6533 -97.8094 89° East 464 534 34,900 -540 Descending Houston Center
03:09PM 29.6553 -97.6658 89° East 453 521 33,900 -1,200 Descending Houston Center
03:10PM 29.6558 -97.5258 90° East 443 510 32,500 -2,100 Descending Houston Center
03:11PM 29.6592 -97.3511 89° East 454 522 29,700 -2,640 Descending Houston Center
03:12PM 29.6592 -97.1994 90° East 468 539 27,100 -2,580 Descending Houston Center
03:13PM 29.6603 -97.0522 89° East 461 531 24,500 -2,460 Descending Houston Center
03:14PM 29.6469 -96.9114 96° East 443 510 22,100 -2,340 Descending Houston Center
03:16PM 29.6206 -96.7786 103° East 426 490 19,800 -2,160 Descending Houston Center
03:17PM 29.5683 -96.6603 117° Southeast 411 473 17,700 -2,040 Descending Houston Center
03:18PM 29.5153 -96.5433 118° Southeast 410 472 15,700 -1,980 Descending Houston Center
03:19PM 29.4569 -96.4419 123° Southeast 386 444 13,700 -1,860 Descending Houston Center
03:19PM 29.4261 -96.3647 115° Southeast 345 397 12,500 -1,500 Descending Houston Center
03:20PM 29.4750 -96.2728 59° Northeast 335 386 11,100 -1,260 Descending Houston Center
03:21PM 29.5306 -96.1875 53° Northeast 330 380 10,000 -600 Descending Houston Center
03:22PM 29.5811 -96.0931 58° Northeast 318 366 10,000 -480 Level Houston Center
03:23PM 29.6261 -96.0064 59° Northeast 285 328 9,000 -1,080 Descending Houston Center
03:24PM 29.6639 -95.9347 59° Northeast 283 326 7,900 -1,080 Descending Houston Center
03:25PM 29.7108 -95.8692 50° Northeast 268 308 7,000 -480 Descending Houston Center
03:26PM 29.7761 -95.8256 30° Northeast 269 310 7,000  Level Houston Center
03:27PM 29.8458 -95.7814 29° Northeast 273 314 7,000 -300 Level Houston Center
03:28PM 29.9014 -95.7219 43° Northeast 267 307 6,400 -960 Descending Houston Center
03:29PM 29.9433 -95.6519 55° Northeast 250 288 5,100 -1,140 Descending Houston Center
03:30PM 29.9708 -95.5836 65° Northeast 227 261 4,100 -1,020 Descending Houston Center
03:32PM 29.9931 -95.5256 66° East 174 200 3,100 -1,020 Descending Houston Center